createdAt,value
2018-01-10T00:01:35.822Z,2.45
2018-01-10T00:04:03.519Z,2.49
2018-01-10T00:06:31.297Z,2.46
2018-01-10T00:08:59.216Z,2.49
2018-01-10T00:11:26.950Z,2.47
2018-01-10T00:13:54.632Z,2.51
2018-01-10T00:16:22.359Z,2.54
2018-01-10T00:18:50.089Z,2.54
2018-01-10T00:21:18.849Z,2.57
2018-01-10T00:23:46.548Z,2.58
2018-01-10T00:26:14.537Z,2.53
2018-01-10T00:28:42.201Z,2.51
2018-01-10T00:31:09.863Z,2.55
2018-01-10T00:33:37.612Z,2.70
2018-01-10T00:36:05.298Z,2.87
2018-01-10T00:38:33.034Z,2.53
2018-01-10T00:41:00.769Z,2.48
2018-01-10T00:43:28.492Z,2.42
2018-01-10T00:45:56.225Z,2.42
2018-01-10T00:48:23.901Z,2.40
2018-01-10T00:50:51.624Z,2.32
2018-01-10T00:53:19.390Z,2.28
2018-01-10T00:55:47.067Z,2.31
2018-01-10T00:58:14.826Z,2.35
2018-01-10T01:00:42.503Z,2.34
2018-01-10T01:03:10.187Z,2.37
2018-01-10T01:05:37.954Z,2.32
2018-01-10T01:08:05.633Z,2.31
2018-01-10T01:10:33.352Z,2.25
2018-01-10T01:13:01.198Z,2.21
2018-01-10T01:15:28.939Z,2.24
2018-01-10T01:17:56.666Z,2.28
2018-01-10T01:20:24.365Z,2.27
2018-01-10T01:22:52.107Z,2.28
2018-01-10T01:25:19.818Z,2.34
2018-01-10T01:27:47.525Z,2.33
2018-01-10T01:30:15.228Z,2.31
2018-01-10T01:32:42.967Z,2.41
2018-01-10T01:35:10.677Z,2.32
2018-01-10T01:37:38.453Z,2.40
2018-01-10T01:40:06.153Z,2.72
2018-01-10T01:42:34.489Z,2.60
2018-01-10T01:45:02.163Z,2.45
2018-01-10T01:47:30.832Z,2.46
2018-01-10T01:49:58.544Z,2.43
2018-01-10T01:52:26.246Z,2.42
2018-01-10T01:54:53.963Z,2.42
2018-01-10T01:57:21.649Z,2.46
2018-01-10T01:59:49.401Z,2.38
2018-01-10T02:02:17.078Z,2.37
2018-01-10T02:04:44.810Z,2.35
2018-01-10T02:07:12.562Z,2.36
2018-01-10T02:09:40.241Z,2.32
2018-01-10T02:12:08.115Z,2.37
2018-01-10T02:14:35.966Z,2.36
2018-01-10T02:17:03.649Z,2.35
2018-01-10T02:19:31.432Z,2.34
2018-01-10T02:21:59.127Z,2.30
2018-01-10T02:24:26.903Z,2.34
2018-01-10T02:26:54.601Z,2.38
2018-01-10T02:29:23.249Z,2.28
2018-01-10T02:31:50.994Z,2.39
2018-01-10T02:34:18.690Z,2.35
2018-01-10T02:36:46.498Z,2.31
2018-01-10T02:39:14.203Z,2.47
2018-01-10T02:41:41.898Z,2.40
2018-01-10T02:44:09.636Z,2.35
2018-01-10T02:46:37.355Z,2.49
2018-01-10T02:49:05.022Z,2.42
2018-01-10T02:51:32.748Z,2.37
2018-01-10T02:54:00.436Z,2.30
2018-01-10T02:56:28.198Z,2.29
2018-01-10T02:58:55.909Z,2.32
2018-01-10T03:01:23.972Z,2.38
2018-01-10T03:03:51.672Z,2.29
2018-01-10T03:06:19.426Z,2.34
2018-01-10T03:08:47.145Z,2.28
2018-01-10T03:11:14.910Z,2.33
2018-01-10T03:13:42.608Z,2.39
2018-01-10T03:16:10.317Z,2.42
2018-01-10T03:18:38.038Z,2.44
2018-01-10T03:21:05.724Z,2.46
2018-01-10T03:23:33.436Z,2.54
2018-01-10T03:26:01.111Z,2.77
2018-01-10T03:28:28.911Z,2.61
2018-01-10T03:30:56.655Z,2.50
2018-01-10T03:33:24.450Z,2.45
2018-01-10T03:35:52.111Z,2.43
2018-01-10T03:38:19.828Z,2.55
2018-01-10T03:40:47.575Z,2.57
2018-01-10T03:43:15.296Z,2.59
2018-01-10T03:45:42.986Z,2.44
2018-01-10T03:48:10.699Z,2.39
2018-01-10T03:50:38.456Z,2.40
2018-01-10T03:53:06.144Z,2.44
2018-01-10T03:55:33.894Z,2.52
2018-01-10T03:58:01.570Z,2.50
2018-01-10T04:00:30.206Z,2.46
2018-01-10T04:02:57.924Z,2.41
2018-01-10T04:05:25.608Z,2.40
2018-01-10T04:07:53.374Z,2.44
2018-01-10T04:10:21.120Z,2.42
2018-01-10T04:12:48.855Z,2.48
2018-01-10T04:15:16.598Z,2.44
2018-01-10T04:17:44.342Z,2.40
2018-01-10T04:20:12.024Z,2.34
2018-01-10T04:22:39.758Z,2.34
2018-01-10T04:25:07.447Z,2.27
2018-01-10T04:27:35.162Z,2.36
2018-01-10T04:30:03.025Z,2.25
2018-01-10T04:32:30.720Z,2.22
2018-01-10T04:34:58.409Z,2.22
2018-01-10T04:37:26.135Z,2.19
2018-01-10T04:39:54.265Z,2.17
2018-01-10T04:42:22.056Z,2.18
2018-01-10T04:44:49.735Z,2.12
2018-01-10T04:47:17.465Z,2.09
2018-01-10T04:49:45.196Z,2.16
2018-01-10T04:52:12.939Z,2.08
2018-01-10T04:54:40.731Z,1.84
2018-01-10T04:57:08.453Z,1.87
2018-01-10T04:59:36.179Z,1.87
2018-01-10T05:02:03.912Z,1.80
2018-01-10T05:04:31.619Z,1.82
2018-01-10T05:06:59.409Z,1.84
2018-01-10T05:09:27.149Z,1.82
2018-01-10T05:11:54.870Z,1.91
2018-01-10T05:14:23.039Z,1.81
2018-01-10T05:16:50.769Z,1.83
2018-01-10T05:19:18.498Z,1.88
2018-01-10T05:21:46.266Z,1.94
2018-01-10T05:24:13.976Z,1.83
2018-01-10T05:26:41.801Z,1.89
2018-01-10T05:29:09.824Z,1.88
2018-01-10T05:31:37.638Z,1.91
2018-01-10T05:34:05.367Z,1.83
2018-01-10T05:36:33.305Z,1.72
2018-01-10T05:39:01.080Z,1.73
2018-01-10T05:41:29.067Z,1.76
2018-01-10T05:43:56.863Z,1.78
2018-01-10T05:46:24.556Z,1.75
2018-01-10T05:48:52.304Z,1.78
2018-01-10T05:51:20.039Z,1.81
2018-01-10T05:53:47.788Z,1.79
2018-01-10T05:56:15.519Z,1.77
2018-01-10T05:58:43.220Z,1.85
2018-01-10T06:01:10.976Z,1.85
2018-01-10T06:03:38.753Z,1.85
2018-01-10T06:06:06.548Z,1.88
2018-01-10T06:08:34.267Z,1.88
2018-01-10T06:11:03.215Z,1.86
2018-01-10T06:13:30.990Z,1.84
2018-01-10T06:15:59.224Z,1.82
2018-01-10T06:18:26.911Z,1.84
2018-01-10T06:20:54.678Z,1.83
2018-01-10T06:23:22.381Z,1.87
2018-01-10T06:25:50.112Z,1.91
2018-01-10T06:28:17.801Z,1.94
2018-01-10T06:30:45.520Z,1.87
2018-01-10T06:33:13.264Z,1.84
2018-01-10T06:35:40.998Z,1.79
2018-01-10T06:38:08.763Z,1.79
2018-01-10T06:40:36.427Z,1.79
2018-01-10T06:43:04.190Z,1.72
2018-01-10T06:45:31.892Z,1.74
2018-01-10T06:47:59.584Z,1.81
2018-01-10T06:50:27.379Z,1.83
2018-01-10T06:52:55.200Z,1.91
2018-01-10T06:55:22.868Z,1.96
2018-01-10T06:57:51.688Z,2.02
2018-01-10T07:00:19.596Z,2.04
2018-01-10T07:02:47.340Z,2.01
2018-01-10T07:05:15.186Z,2.06
2018-01-10T07:07:42.887Z,1.98
2018-01-10T07:10:10.655Z,1.84
2018-01-10T07:12:38.429Z,1.81
2018-01-10T07:15:06.108Z,1.86
2018-01-10T07:17:34.078Z,1.85
2018-01-10T07:20:01.833Z,1.89
2018-01-10T07:22:29.622Z,1.95
2018-01-10T07:24:57.345Z,1.98
2018-01-10T07:27:25.049Z,2.03
2018-01-10T07:29:52.785Z,2.07
2018-01-10T07:32:20.570Z,2.08
2018-01-10T07:34:48.367Z,2.05
2018-01-10T07:37:16.174Z,2.14
2018-01-10T07:39:44.062Z,2.04
2018-01-10T07:42:11.791Z,1.95
2018-01-10T07:44:39.503Z,1.96
2018-01-10T07:47:07.264Z,1.96
2018-01-10T07:49:34.981Z,2.05
2018-01-10T07:52:02.698Z,2.12
2018-01-10T07:54:30.465Z,2.20
2018-01-10T07:56:58.209Z,2.19
2018-01-10T07:59:25.883Z,2.26
2018-01-10T08:01:53.612Z,2.16
2018-01-10T08:04:21.289Z,2.09
2018-01-10T08:06:49.166Z,2.00
2018-01-10T08:09:16.909Z,2.34
2018-01-10T08:11:44.603Z,2.37
2018-01-10T08:14:12.349Z,2.22
2018-01-10T08:16:40.141Z,2.18
2018-01-10T08:19:08.046Z,2.23
2018-01-10T08:21:35.828Z,2.26
2018-01-10T08:24:03.520Z,2.35
2018-01-10T08:26:31.286Z,2.30
2018-01-10T08:28:59.004Z,2.29
2018-01-10T08:31:26.814Z,2.22
2018-01-10T08:33:54.577Z,2.18
2018-01-10T08:36:22.261Z,2.15
2018-01-10T08:38:49.949Z,2.20
2018-01-10T08:41:17.705Z,2.30
2018-01-10T08:43:45.388Z,2.37
2018-01-10T08:46:13.119Z,2.43
2018-01-10T08:48:40.942Z,2.52
2018-01-10T08:51:09.241Z,2.44
2018-01-10T08:53:37.260Z,2.40
2018-01-10T08:56:05.059Z,2.42
2018-01-10T08:58:32.819Z,2.37
2018-01-10T09:01:00.648Z,2.32
2018-01-10T09:03:28.795Z,2.36
2018-01-10T09:05:56.696Z,2.36
2018-01-10T09:08:24.499Z,2.30
2018-01-10T09:10:52.358Z,2.43
2018-01-10T09:13:20.113Z,2.54
2018-01-10T09:15:47.826Z,2.59
2018-01-10T09:18:15.590Z,2.56
2018-01-10T09:20:43.275Z,2.49
2018-01-10T09:23:11.105Z,2.56
2018-01-10T09:25:38.886Z,2.71
2018-01-10T09:28:06.607Z,2.78
2018-01-10T09:30:34.505Z,2.86
2018-01-10T09:33:02.267Z,2.89
2018-01-10T09:35:30.055Z,2.96
2018-01-10T09:37:57.798Z,3.00
2018-01-10T09:40:25.612Z,3.06
2018-01-10T09:42:54.568Z,3.10
2018-01-10T09:45:22.274Z,3.30
2018-01-10T09:47:50.081Z,3.27
2018-01-10T09:50:17.858Z,3.20
2018-01-10T09:52:45.578Z,3.05
2018-01-10T09:55:13.367Z,3.26
2018-01-10T09:57:41.108Z,3.29
2018-01-10T10:00:08.896Z,3.23
2018-01-10T10:02:36.635Z,3.29
2018-01-10T10:05:04.399Z,3.35
2018-01-10T10:07:32.156Z,3.43
2018-01-10T10:09:59.936Z,3.49
2018-01-10T10:12:27.774Z,3.43
2018-01-10T10:14:55.525Z,3.44
2018-01-10T10:17:23.365Z,3.44
2018-01-10T10:19:51.102Z,3.53
2018-01-10T10:22:18.913Z,3.32
2018-01-10T10:24:46.692Z,3.32
2018-01-10T10:27:14.420Z,3.41
2018-01-10T10:29:42.216Z,3.46
2018-01-10T10:32:09.949Z,3.32
2018-01-10T10:34:37.731Z,3.29
2018-01-10T10:37:05.502Z,3.25
2018-01-10T10:39:33.198Z,3.24
2018-01-10T10:42:01.649Z,3.39
2018-01-10T10:44:29.475Z,3.49
2018-01-10T10:46:57.251Z,3.33
2018-01-10T10:49:25.058Z,3.39
2018-01-10T10:51:52.806Z,3.35
2018-01-10T10:54:20.534Z,3.38
2018-01-10T10:56:48.244Z,3.25
2018-01-10T10:59:16.012Z,3.27
2018-01-10T11:01:43.910Z,3.07
2018-01-10T11:04:11.622Z,3.21
2018-01-10T11:06:39.308Z,3.49
2018-01-10T11:09:07.093Z,3.56
2018-01-10T11:11:34.837Z,3.68
2018-01-10T11:14:02.649Z,3.70
2018-01-10T11:16:31.309Z,3.79
2018-01-10T11:18:59.086Z,3.91
2018-01-10T11:21:26.838Z,4.11
2018-01-10T11:23:54.654Z,4.21
2018-01-10T11:26:22.401Z,4.13
2018-01-10T11:28:50.179Z,4.25
2018-01-10T11:31:17.951Z,4.31
2018-01-10T11:33:45.640Z,4.17
2018-01-10T11:36:13.366Z,4.46
2018-01-10T11:38:41.224Z,4.63
2018-01-10T11:41:08.932Z,4.73
2018-01-10T11:43:36.757Z,4.59
2018-01-10T11:46:04.628Z,4.55
2018-01-10T11:48:32.376Z,4.53
2018-01-10T11:51:00.285Z,4.86
2018-01-10T11:55:55.698Z,5.19
2018-01-10T11:58:23.400Z,5.40
2018-01-10T12:00:51.174Z,5.30
2018-01-10T12:03:18.851Z,5.13
2018-01-10T12:05:46.661Z,5.04
2018-01-10T12:08:14.417Z,5.02
2018-01-10T12:10:42.198Z,4.99
2018-01-10T12:13:10.136Z,5.23
2018-01-10T12:15:37.911Z,5.39
2018-01-10T12:18:06.107Z,5.47
2018-01-10T12:20:33.959Z,5.63
2018-01-10T12:23:01.738Z,5.92
2018-01-10T12:25:29.454Z,6.22
2018-01-10T12:27:57.246Z,7.13
2018-01-10T12:30:25.083Z,7.30
2018-01-10T12:32:52.809Z,7.44
2018-01-10T12:35:20.563Z,6.70
2018-01-10T12:37:48.289Z,6.60
2018-01-10T12:40:15.988Z,6.75
2018-01-10T12:42:43.693Z,6.80
2018-01-10T12:45:11.499Z,7.20
2018-01-10T12:47:39.291Z,7.00
2018-01-10T12:50:07.232Z,7.02
2018-01-10T12:52:35.736Z,7.00
2018-01-10T12:55:03.463Z,7.20
2018-01-10T12:57:31.248Z,7.69
2018-01-10T12:59:59.031Z,7.25
2018-01-10T13:02:26.748Z,7.39
2018-01-10T13:04:54.556Z,7.33
2018-01-10T13:07:22.286Z,7.46
2018-01-10T13:09:50.096Z,7.78
2018-01-10T13:12:17.868Z,7.95
2018-01-10T13:14:45.606Z,7.48
2018-01-10T13:17:13.604Z,7.43
2018-01-10T13:19:42.603Z,7.29
2018-01-10T13:22:11.276Z,7.18
2018-01-10T13:24:40.115Z,7.18
2018-01-10T13:27:07.926Z,7.13
2018-01-10T13:29:35.615Z,7.19
2018-01-10T13:32:03.381Z,7.21
2018-01-10T13:34:31.093Z,7.13
2018-01-10T13:37:00.615Z,7.06
2018-01-10T13:39:28.401Z,7.05
2018-01-10T13:41:56.579Z,6.92
2018-01-10T13:44:24.425Z,7.11
2018-01-10T13:46:52.461Z,7.16
2018-01-10T13:49:21.019Z,7.25
2018-01-10T13:51:48.817Z,7.29
2018-01-10T13:54:16.933Z,7.09
2018-01-10T13:56:44.697Z,7.17
2018-01-10T13:59:12.414Z,6.92
2018-01-10T14:01:40.181Z,6.92
2018-01-10T14:04:07.959Z,6.89
2018-01-10T14:06:35.734Z,6.96
2018-01-10T14:09:04.516Z,6.86
2018-01-10T14:11:33.276Z,6.69
2018-01-10T14:14:01.070Z,6.60
2018-01-10T14:16:30.786Z,6.54
2018-01-10T14:18:58.557Z,6.26
2018-01-10T14:21:26.419Z,5.77
2018-01-10T14:23:54.131Z,5.82
2018-01-10T14:26:22.394Z,5.77
2018-01-10T14:28:50.176Z,5.60
2018-01-10T14:31:17.899Z,5.49
2018-01-10T14:33:45.844Z,5.34
2018-01-10T14:36:13.636Z,5.20
2018-01-10T14:38:42.722Z,4.95
2018-01-10T14:41:10.522Z,4.84
2018-01-10T14:43:38.398Z,4.80
2018-01-10T14:46:06.154Z,4.76
2018-01-10T14:48:34.022Z,4.60
2018-01-10T14:51:01.943Z,4.46
2018-01-10T14:53:31.307Z,4.50
2018-01-10T14:55:59.208Z,4.41
2018-01-10T14:58:26.904Z,4.35
2018-01-10T15:00:54.628Z,4.34
2018-01-10T15:03:22.387Z,4.24
2018-01-10T15:05:50.188Z,4.19
2018-01-10T15:08:17.953Z,4.16
2018-01-10T15:10:45.810Z,4.15
2018-01-10T15:13:13.668Z,4.07
2018-01-10T15:15:41.418Z,3.88
2018-01-10T15:18:09.924Z,3.75
2018-01-10T15:20:37.695Z,3.63
2018-01-10T15:23:05.724Z,3.62
2018-01-10T15:25:33.416Z,3.51
2018-01-10T15:28:02.554Z,3.19
2018-01-10T15:30:30.332Z,3.42
2018-01-10T15:32:59.996Z,3.53
2018-01-10T15:35:27.980Z,3.38
2018-01-10T15:37:55.672Z,3.33
2018-01-10T15:40:23.418Z,3.22
2018-01-10T15:42:51.181Z,3.19
2018-01-10T15:45:19.608Z,3.13
2018-01-10T15:47:47.407Z,2.95
2018-01-10T15:50:15.095Z,3.02
2018-01-10T15:52:42.887Z,2.93
2018-01-10T15:55:10.728Z,2.81
2018-01-10T15:57:38.560Z,2.78
2018-01-10T16:00:07.284Z,2.73
2018-01-10T16:02:35.001Z,2.73
2018-01-10T16:05:02.778Z,2.61
2018-01-10T16:07:31.753Z,2.50
2018-01-10T16:09:59.728Z,2.51
2018-01-10T16:12:27.472Z,2.50
2018-01-10T16:14:55.192Z,2.34
2018-01-10T16:17:22.982Z,2.45
2018-01-10T16:19:51.222Z,2.38
2018-01-10T16:22:18.999Z,2.31
2018-01-10T16:24:46.822Z,2.23
2018-01-10T16:27:14.536Z,2.24
2018-01-10T16:29:42.362Z,2.28
2018-01-10T16:32:11.054Z,2.09
2018-01-10T16:34:38.844Z,2.30
2018-01-10T16:37:06.545Z,2.01
2018-01-10T16:39:34.746Z,2.15
2018-01-10T16:42:02.456Z,2.18
2018-01-10T16:44:30.197Z,2.14
2018-01-10T16:46:58.771Z,2.10
2018-01-10T16:49:26.526Z,1.94
2018-01-10T16:51:54.246Z,1.92
2018-01-10T16:54:22.107Z,1.82
2018-01-10T16:56:49.843Z,1.76
2018-01-10T16:59:17.586Z,1.79
2018-01-10T17:01:45.405Z,1.84
2018-01-10T17:04:13.627Z,1.84
2018-01-10T17:06:41.408Z,1.82
2018-01-10T17:09:09.359Z,1.80
2018-01-10T17:11:37.055Z,1.84
2018-01-10T17:14:04.809Z,1.81
2018-01-10T17:16:33.462Z,1.83
2018-01-10T17:19:01.318Z,1.93
2018-01-10T17:21:29.074Z,1.80
2018-01-10T17:23:56.812Z,1.78
2018-01-10T17:26:24.641Z,1.73
2018-01-10T17:28:52.542Z,1.75
2018-01-10T17:31:20.377Z,1.57
2018-01-10T17:33:48.376Z,1.61
2018-01-10T17:36:16.208Z,1.59
2018-01-10T17:38:43.994Z,1.54
2018-01-10T17:41:11.780Z,1.51
2018-01-10T17:43:39.535Z,1.53
2018-01-10T17:46:07.320Z,1.46
2018-01-10T17:48:35.040Z,1.46
2018-01-10T17:51:03.961Z,1.44
2018-01-10T17:53:31.814Z,1.60
2018-01-10T17:55:59.557Z,1.41
2018-01-10T17:58:27.450Z,1.27
2018-01-10T18:00:55.620Z,1.45
2018-01-10T18:03:23.442Z,1.60
2018-01-10T18:05:51.294Z,1.67
2018-01-10T18:08:19.069Z,1.67
2018-01-10T18:10:46.803Z,1.75
2018-01-10T18:13:14.584Z,1.72
2018-01-10T18:15:42.778Z,1.65
2018-01-10T18:18:10.555Z,1.73
2018-01-10T18:20:38.392Z,1.74
2018-01-10T18:23:06.120Z,1.70
2018-01-10T18:25:33.881Z,1.74
2018-01-10T18:28:01.679Z,1.77
2018-01-10T18:30:29.487Z,1.80
2018-01-10T18:32:57.444Z,1.82
2018-01-10T18:35:25.218Z,1.72
2018-01-10T18:37:54.319Z,1.83
2018-01-10T18:40:22.066Z,1.70
2018-01-10T18:42:49.870Z,1.79
2018-01-10T18:45:17.664Z,1.86
2018-01-10T18:47:46.359Z,1.89
2018-01-10T18:50:14.084Z,1.83
2018-01-10T18:52:43.972Z,1.72
2018-01-10T18:55:11.960Z,1.64
2018-01-10T18:57:39.908Z,1.59
2018-01-10T19:00:08.099Z,1.65
2018-01-10T19:02:36.046Z,1.67
2018-01-10T19:05:04.360Z,1.71
2018-01-10T19:07:32.609Z,1.81
2018-01-10T19:10:00.792Z,1.82
2018-01-10T19:12:28.716Z,1.81
2018-01-10T19:14:56.570Z,1.83
2018-01-10T19:17:24.346Z,1.84
2018-01-10T19:19:52.138Z,1.90
2018-01-10T19:22:20.906Z,1.95
2018-01-10T19:24:48.884Z,1.99
2018-01-10T19:27:16.690Z,2.02
2018-01-10T19:29:44.649Z,2.06
2018-01-10T19:32:12.486Z,2.07
2018-01-10T19:34:40.479Z,2.07
2018-01-10T19:37:09.530Z,2.02
2018-01-10T19:39:37.466Z,2.00
2018-01-10T19:42:06.235Z,1.99
2018-01-10T19:44:34.696Z,1.93
2018-01-10T19:47:02.538Z,1.90
2018-01-10T19:49:31.447Z,1.94
2018-01-10T19:51:59.313Z,2.02
2018-01-10T19:54:27.116Z,2.05
2018-01-10T19:56:54.923Z,2.07
2018-01-10T19:59:23.150Z,2.12
2018-01-10T20:01:51.058Z,2.14
2018-01-10T20:04:18.895Z,2.14
2018-01-10T20:06:46.831Z,2.11
2018-01-10T20:09:14.754Z,2.15
2018-01-10T20:11:42.513Z,2.14
2018-01-10T20:14:10.406Z,2.16
2018-01-10T20:16:38.215Z,2.18
2018-01-10T20:19:05.971Z,2.36
2018-01-10T20:21:33.852Z,2.05
2018-01-10T20:24:01.638Z,2.00
2018-01-10T20:26:29.492Z,2.01
2018-01-10T20:28:57.383Z,2.03
2018-01-10T20:31:26.352Z,2.04
2018-01-10T20:33:54.191Z,2.00
2018-01-10T20:36:21.918Z,2.15
2018-01-10T20:38:50.926Z,2.09
2018-01-10T20:41:18.675Z,2.11
2018-01-10T20:43:46.624Z,2.14
2018-01-10T20:46:14.487Z,2.21
2018-01-10T20:48:42.336Z,2.24
2018-01-10T20:51:10.109Z,2.23
2018-01-10T20:53:37.839Z,2.26
2018-01-10T20:56:05.645Z,2.25
2018-01-10T20:58:34.015Z,2.27
2018-01-10T21:01:01.735Z,2.27
2018-01-10T21:03:30.476Z,2.25
2018-01-10T21:05:58.365Z,2.22
2018-01-10T21:08:26.826Z,2.25
2018-01-10T21:10:54.607Z,2.24
2018-01-10T21:13:22.609Z,2.22
2018-01-10T21:15:50.320Z,2.09
2018-01-10T21:18:18.157Z,2.05
2018-01-10T21:20:45.926Z,2.07
2018-01-10T21:23:14.928Z,2.05
2018-01-10T21:25:42.683Z,2.11
2018-01-10T21:28:10.451Z,2.10
2018-01-10T21:30:38.325Z,2.08
2018-01-10T21:33:06.062Z,2.15
2018-01-10T21:35:33.852Z,2.14
2018-01-10T21:38:01.592Z,2.16
2018-01-10T21:40:29.354Z,2.18
2018-01-10T21:42:58.054Z,2.23
2018-01-10T21:45:26.046Z,2.25
2018-01-10T21:47:53.817Z,2.24
2018-01-10T21:50:21.515Z,2.26
2018-01-10T21:52:49.267Z,2.24
2018-01-10T21:55:16.984Z,2.24
2018-01-10T21:57:44.759Z,2.21
2018-01-10T22:00:12.620Z,2.23
2018-01-10T22:02:40.356Z,2.23
2018-01-10T22:05:08.127Z,2.23
2018-01-10T22:07:35.829Z,2.26
2018-01-10T22:10:03.524Z,2.30
2018-01-10T22:12:31.303Z,2.24
2018-01-10T22:14:59.098Z,2.09
2018-01-10T22:17:26.915Z,2.16
2018-01-10T22:19:55.800Z,2.13
2018-01-10T22:22:23.487Z,2.17
2018-01-10T22:24:51.237Z,2.18
2018-01-10T22:27:18.986Z,2.18
2018-01-10T22:29:46.739Z,2.20
2018-01-10T22:32:14.455Z,2.26
2018-01-10T22:34:42.236Z,2.26
2018-01-10T22:37:09.922Z,2.28
2018-01-10T22:39:37.766Z,2.25
2018-01-10T22:42:05.465Z,2.12
2018-01-10T22:44:33.537Z,2.04
2018-01-10T22:47:01.304Z,2.00
2018-01-10T22:49:29.231Z,2.08
2018-01-10T22:51:56.955Z,2.14
2018-01-10T22:54:24.722Z,2.20
2018-01-10T22:56:52.743Z,2.21
2018-01-10T22:59:21.154Z,2.12
2018-01-10T23:01:49.008Z,2.02
2018-01-10T23:04:16.792Z,1.96
2018-01-10T23:06:44.502Z,2.13
2018-01-10T23:09:12.189Z,2.17
2018-01-10T23:11:39.936Z,2.22
2018-01-10T23:14:07.677Z,2.20
2018-01-10T23:16:35.436Z,2.19
2018-01-10T23:19:03.196Z,2.20
2018-01-10T23:21:30.899Z,2.20
2018-01-10T23:23:58.562Z,2.22
2018-01-10T23:26:26.322Z,2.23
2018-01-10T23:28:54.008Z,2.23
2018-01-10T23:31:21.727Z,2.19
2018-01-10T23:33:49.486Z,2.24
2018-01-10T23:36:17.405Z,2.29
2018-01-10T23:38:45.103Z,2.30
2018-01-10T23:41:12.783Z,2.29
2018-01-10T23:43:40.517Z,2.31
2018-01-10T23:46:08.190Z,2.29
2018-01-10T23:48:35.940Z,2.30
2018-01-10T23:51:03.628Z,2.25
2018-01-10T23:53:31.359Z,2.23
2018-01-10T23:55:59.104Z,2.21
2018-01-10T23:58:26.854Z,2.19
